Time;durP1;ratioP1;P1;durP2;ratioP2;P2;SDS_P1;SDS_P2;PMS_P1;PMS_P2;Temp;Humidity;BMP_temperature;BMP_pressure;BME280_temperature;BME280_humidity;BME280_pressure;Samples;Min_cycle;Max_cycle;Signal;HPM_P1;HPM_P2
2024/03/25 00:02:19;;;;;;;2.63;1.90;;;;;;;8.17;69.85;97933.28;5112796;28;41892;-76
2024/03/25 00:04:45;;;;;;;3.50;1.83;;;;;;;8.20;69.90;97943.63;5112675;28;43543;-76
2024/03/25 00:07:14;;;;;;;2.00;1.57;;;;;;;8.22;69.92;97941.75;5112976;28;42263;-75
2024/03/25 00:09:40;;;;;;;4.00;2.13;;;;;;;8.20;70.14;97943.63;5095379;28;38875;-74
2024/03/25 00:12:08;;;;;;;2.43;1.80;;;;;;;8.24;70.26;97933.72;5112527;28;40786;-74
2024/03/25 00:14:36;;;;;;;3.47;1.73;;;;;;;8.27;70.10;97949.34;5111854;27;41844;-78
2024/03/25 00:17:03;;;;;;;3.47;1.87;;;;;;;8.27;70.24;97939.66;5112717;28;43391;-76
2024/03/25 00:19:31;;;;;;;4.03;1.90;;;;;;;8.29;69.50;97943.00;5113664;28;41023;-76
2024/03/25 00:21:58;;;;;;;2.57;1.63;;;;;;;8.32;69.75;97935.88;5112642;28;42715;-75
2024/03/25 00:24:26;;;;;;;5.07;2.07;;;;;;;8.33;68.79;97948.97;5112479;28;41462;-74
2024/03/25 00:26:54;;;;;;;3.47;1.93;;;;;;;8.35;68.78;97946.22;5095257;28;43872;-76
2024/03/25 00:29:20;;;;;;;1.93;1.57;;;;;;;8.24;68.53;97931.09;5095257;28;39847;-77
2024/03/25 00:31:48;;;;;;;2.87;1.80;;;;;;;8.30;68.65;97942.06;5113382;28;41599;-76
2024/03/25 00:34:14;;;;;;;3.20;2.27;;;;;;;8.23;67.68;97940.81;5095367;28;43104;-77
2024/03/25 00:36:42;;;;;;;2.33;1.83;;;;;;;8.28;68.04;97941.31;5094727;28;40826;-74
2024/03/25 00:39:10;;;;;;;2.67;1.90;;;;;;;8.29;68.12;97943.00;5095306;28;39622;-75
2024/03/25 00:41:39;;;;;;;2.00;1.80;;;;;;;8.24;67.80;97937.22;5094658;28;43492;-74
2024/03/25 00:44:05;;;;;;;2.80;1.50;;;;;;;8.27;68.17;97938.81;5112534;28;42792;-76
2024/03/25 00:46:33;;;;;;;6.27;1.70;;;;;;;8.23;68.25;97946.06;5113608;28;42224;-76
2024/03/25 00:48:59;;;;;;;1.80;1.43;;;;;;;8.17;67.46;97943.84;5113466;28;40843;-76
2024/03/25 00:51:26;;;;;;;2.57;1.50;;;;;;;8.08;66.80;97955.00;5112849;28;41963;-75
2024/03/25 00:53:53;;;;;;;5.27;1.50;;;;;;;8.01;67.53;97953.75;5111492;28;42695;-75
2024/03/25 00:56:20;;;;;;;1.43;1.30;;;;;;;7.94;67.58;97952.44;5111766;28;42338;-74
2024/03/25 00:58:48;;;;;;;3.13;1.37;;;;;;;7.93;67.44;97954.22;5113306;28;39978;-74
2024/03/25 01:01:16;;;;;;;4.03;1.40;;;;;;;7.90;67.52;97961.53;5112805;28;42574;-76
2024/03/25 01:03:42;;;;;;;2.07;1.20;;;;;;;7.89;67.14;97965.09;5112160;28;43602;-76
2024/03/25 01:06:10;;;;;;;3.17;1.43;;;;;;;7.84;67.07;97946.09;5111824;28;42408;-77
2024/03/25 01:08:36;;;;;;;4.77;1.50;;;;;;;7.88;66.69;97958.13;5113270;28;39877;-75
2024/03/25 01:11:04;;;;;;;2.23;1.20;;;;;;;7.87;67.13;97954.66;5111698;28;41574;-77
2024/03/25 01:13:30;;;;;;;3.00;1.27;;;;;;;7.88;67.33;97958.97;5094579;28;41930;-76
2024/03/25 01:15:59;;;;;;;3.57;1.07;;;;;;;7.82;66.70;97937.44;5112805;28;42072;-74
2024/03/25 01:18:26;;;;;;;2.97;1.53;;;;;;;7.97;66.74;97956.66;5094927;28;40497;-74
2024/03/25 01:20:54;;;;;;;2.57;1.47;;;;;;;8.00;66.72;97951.19;5111630;28;41637;-74
2024/03/25 01:23:21;;;;;;;2.10;1.07;;;;;;;8.02;66.49;97960.72;5112833;28;42725;-77
2024/03/25 01:25:48;;;;;;;5.57;1.60;;;;;;;8.05;66.58;97949.94;5109912;27;42358;-76
2024/03/25 01:28:15;;;;;;;2.83;1.23;;;;;;;8.09;66.16;97958.50;5111569;28;40005;-76
2024/03/25 01:30:43;;;;;;;1.23;0.83;;;;;;;8.13;66.10;97968.75;5110786;28;41625;-74
2024/03/25 01:33:11;;;;;;;2.80;1.40;;;;;;;8.16;65.46;97965.88;5111478;28;42744;-77
2024/03/25 01:35:38;;;;;;;3.30;1.20;;;;;;;8.17;65.46;97964.94;5111511;28;42500;-74
2024/03/25 01:38:05;;;;;;;2.40;1.07;;;;;;;8.17;65.20;97964.09;5111319;28;38318;-75
2024/03/25 01:40:32;;;;;;;3.07;1.10;;;;;;;8.17;65.63;97953.53;5111235;28;42476;-75
2024/03/25 01:43:00;;;;;;;3.17;1.40;;;;;;;8.17;65.44;97964.09;5111524;28;42899;-74
2024/03/25 01:45:30;;;;;;;3.17;1.27;;;;;;;7.99;65.60;97939.81;5110989;28;42438;-76
2024/03/25 01:47:57;;;;;;;4.70;1.23;;;;;;;8.13;65.04;97974.00;5111562;28;39601;-76
2024/03/25 01:50:27;;;;;;;2.87;1.20;;;;;;;8.15;65.63;97964.22;5110821;28;40994;-73
2024/03/25 01:52:54;;;;;;;1.10;1.00;;;;;;;8.15;65.18;97955.47;5111008;28;44007;-75
2024/03/25 01:55:25;;;;;;;2.13;0.80;;;;;;;8.05;65.52;97949.94;5110439;28;41394;-76
2024/03/25 01:57:52;;;;;;;2.33;1.17;;;;;;;8.15;65.45;97963.38;5094231;28;39095;-76
2024/03/25 02:00:20;;;;;;;2.30;1.20;;;;;;;8.16;65.53;97971.16;5110039;28;43232;-75
2024/03/25 02:02:47;;;;;;;2.23;1.10;;;;;;;8.15;65.49;97972.13;5112491;28;43665;-74
2024/03/25 02:05:16;;;;;;;1.43;1.20;;;;;;;8.05;65.61;97959.63;5111004;28;40873;-76
2024/03/25 02:07:44;;;;;;;2.20;1.07;;;;;;;8.20;65.26;97977.06;5111114;28;39973;-75
2024/03/25 02:10:14;;;;;;;3.23;1.27;;;;;;;8.20;65.37;97974.44;5112108;28;43384;-76
2024/03/25 02:12:41;;;;;;;2.07;1.23;;;;;;;8.09;65.38;97959.34;5113525;28;42750;-76
2024/03/25 02:15:10;;;;;;;2.60;1.03;;;;;;;8.17;65.34;97986.03;5111823;28;43048;-76
2024/03/25 02:17:36;;;;;;;1.80;1.17;;;;;;;8.17;65.42;97983.41;5111275;28;41936;-76
2024/03/25 02:20:05;;;;;;;3.30;1.20;;;;;;;8.14;64.87;97980.97;5110513;28;42189;-76
2024/03/25 02:22:32;;;;;;;2.20;1.33;;;;;;;8.13;64.99;97978.44;5110936;28;43242;-75
2024/03/25 02:25:02;;;;;;;2.10;1.20;;;;;;;8.10;65.17;97979.50;5110514;28;43020;-75
2024/03/25 02:27:31;;;;;;;3.00;1.27;;;;;;;8.09;64.99;97988.34;5110834;28;40331;-76
2024/03/25 02:30:03;;;;;;;1.67;1.00;;;;;;;8.05;65.36;97992.13;5092967;28;43378;-74
2024/03/25 02:32:30;;;;;;;2.40;1.17;;;;;;;7.98;65.56;97982.94;5111755;28;42557;-76
2024/03/25 02:34:58;;;;;;;2.53;1.20;;;;;;;7.94;65.82;97989.34;5110481;28;42045;-75
2024/03/25 02:37:25;;;;;;;1.40;1.00;;;;;;;7.85;65.54;97985.53;5112328;27;40445;-74
2024/03/25 02:39:55;;;;;;;1.27;0.93;;;;;;;7.89;65.80;97988.81;5115111;28;42608;-75
2024/03/25 02:42:22;;;;;;;1.17;0.80;;;;;;;7.91;65.63;97989.56;5114007;28;41918;-75
2024/03/25 02:44:51;;;;;;;1.70;1.23;;;;;;;7.89;66.10;97989.66;5115261;28;42227;-74
2024/03/25 02:47:19;;;;;;;2.70;1.10;;;;;;;7.84;66.22;97994.38;5115303;28;39860;-76
2024/03/25 02:49:47;;;;;;;4.17;1.50;;;;;;;7.78;66.60;97988.69;5115041;28;41676;-75
2024/03/25 02:52:13;;;;;;;2.13;1.10;;;;;;;7.75;66.84;97988.88;5113663;28;41864;-76
2024/03/25 02:54:41;;;;;;;2.13;1.37;;;;;;;7.76;67.11;97988.78;5113709;28;42241;-77
2024/03/25 02:57:07;;;;;;;5.50;1.53;;;;;;;7.74;66.62;97987.19;5113821;28;40622;-76
2024/03/25 02:59:35;;;;;;;2.77;1.43;;;;;;;7.57;67.25;97972.44;5114495;28;42649;-74
2024/03/25 03:02:03;;;;;;;2.37;1.63;;;;;;;7.55;66.94;97988.34;5113392;28;41697;-74
2024/03/25 03:04:31;;;;;;;1.53;1.30;;;;;;;7.48;67.44;97999.38;5113332;28;42137;-74
2024/03/25 03:06:57;;;;;;;3.07;1.57;;;;;;;7.38;67.53;97985.97;5096841;28;40924;-76
2024/03/25 03:09:25;;;;;;;2.70;1.50;;;;;;;7.51;67.73;98002.69;5113622;28;40580;-75
2024/03/25 03:11:51;;;;;;;1.67;1.37;;;;;;;7.19;67.73;97938.03;5113479;28;45585;-74
2024/03/25 03:14:19;;;;;;;4.23;1.50;;;;;;;7.60;67.61;97995.97;5113626;28;42175;-76
2024/03/25 03:16:45;;;;;;;1.83;1.20;;;;;;;7.66;67.68;98000.00;5113268;28;39800;-74
2024/03/25 03:19:14;;;;;;;3.03;1.43;;;;;;;7.64;67.50;97994.00;5113381;28;41386;-76
2024/03/25 03:21:41;;;;;;;1.30;1.13;;;;;;;7.70;67.24;98012.03;5113152;28;42437;-77
2024/03/25 03:24:09;;;;;;;3.87;1.33;;;;;;;7.73;67.01;98006.56;5114720;28;42029;-76
2024/03/25 03:26:35;;;;;;;1.30;1.20;;;;;;;7.70;66.85;98001.50;5113065;28;40055;-76
2024/03/25 03:29:03;;;;;;;3.47;1.30;;;;;;;7.77;66.84;98011.56;5113227;28;41654;-75
2024/03/25 03:31:29;;;;;;;1.47;1.10;;;;;;;7.78;66.70;98010.59;5112782;28;42146;-75
2024/03/25 03:33:57;;;;;;;3.17;1.37;;;;;;;7.71;67.01;97992.63;5096549;28;42194;-75
2024/03/25 03:36:25;;;;;;;3.63;1.40;;;;;;;7.79;67.00;98011.47;5113283;28;40288;-74
2024/03/25 03:38:52;;;;;;;2.83;1.53;;;;;;;7.78;66.92;98009.75;5096061;28;42555;-75
2024/03/25 03:41:19;;;;;;;2.00;1.40;;;;;;;7.75;67.12;97996.78;5095845;28;42882;-77
2024/03/25 03:43:47;;;;;;;2.97;1.60;;;;;;;7.71;67.39;98003.19;5113047;28;41746;-75
2024/03/25 03:46:14;;;;;;;2.23;1.20;;;;;;;7.67;67.06;97999.03;5112946;28;39892;-75
2024/03/25 03:48:41;;;;;;;3.03;1.40;;;;;;;7.63;67.28;98010.75;5095282;28;40737;-76
2024/03/25 03:51:08;;;;;;;5.13;1.50;;;;;;;7.51;67.22;97997.41;5095563;28;41445;-76
2024/03/25 03:53:37;;;;;;;2.57;1.50;;;;;;;7.56;67.53;98005.84;5112403;28;42191;-74
2024/03/25 03:56:05;;;;;;;3.70;1.27;;;;;;;7.55;67.62;98014.69;5113833;28;40930;-76
2024/03/25 03:58:33;;;;;;;1.90;1.20;;;;;;;7.48;67.37;98002.03;5112868;28;40909;-76
2024/03/25 04:01:00;;;;;;;3.97;1.27;;;;;;;7.40;67.82;97999.03;5112438;28;43243;-75
2024/03/25 04:03:28;;;;;;;3.23;1.50;;;;;;;7.50;67.64;98010.69;5095708;28;42170;-75
2024/03/25 04:05:55;;;;;;;1.90;1.43;;;;;;;7.50;67.15;98011.53;5113268;28;40163;-74
2024/03/25 04:08:22;;;;;;;3.07;1.60;;;;;;;7.46;67.49;98009.16;5112899;28;40713;-76
2024/03/25 04:10:50;;;;;;;3.63;1.37;;;;;;;7.46;67.22;98007.38;5095601;28;41690;-76
2024/03/25 04:13:17;;;;;;;4.27;1.30;;;;;;;7.38;67.09;98017.56;5112597;28;42024;-74
2024/03/25 04:15:44;;;;;;;3.23;1.50;;;;;;;7.27;67.84;98020.03;5112332;27;40171;-76
2024/03/25 04:18:12;;;;;;;5.23;1.20;;;;;;;7.19;67.51;98023.13;5112598;28;42659;-75
2024/03/25 04:20:40;;;;;;;2.87;1.60;;;;;;;7.13;67.63;98020.03;5112076;28;41612;-76
2024/03/25 04:23:08;;;;;;;2.33;1.20;;;;;;;7.10;67.69;98028.13;5114008;28;43216;-74
2024/03/25 04:25:37;;;;;;;3.90;1.30;;;;;;;7.05;67.75;98024.91;5112345;28;39080;-74
2024/03/25 04:28:07;;;;;;;2.83;1.33;;;;;;;7.06;67.61;98026.59;5113792;28;41910;-76
2024/03/25 04:30:34;;;;;;;1.70;1.50;;;;;;;7.05;67.88;98030.19;5112723;28;43952;-75
2024/03/25 04:33:01;;;;;;;1.43;1.23;;;;;;;7.01;67.79;98033.97;5112613;28;42453;-76
2024/03/25 04:35:28;;;;;;;2.17;1.30;;;;;;;6.98;67.78;98024.47;5095328;28;38966;-76
